San José, Costa Rica

7:40 PM CST on February 06, 2016 (GMT -0600)
Nunciatura | | Change Station
CLOSE
Current Station
Personal Weather Station
Location: San Jose, SAN JOSE
Elevation: 3661 ft
Nearby Weather Stations

Elev 3661 ft 9.94 °N, 84.11 °W | Updated 1 second ago

Partly Cloudy
Partly Cloudy
65.8 °F
Feels Like 65.8 °F
N
9.2
Wind Variable Wind from NNE
Gusts 22.4 mph

Today
High -- | Low -- °F
--% Chance of Precip.
Yesterday
High -- | Low -- °F
Precip. -- in
Pressure 30.03 in
Visibility 6.2 miles
Clouds Few 3500 ft
Dew Point 57 °F
Humidity 73%
Rainfall 0.00 in
Snow Depth Not available.
5:58 AM 5:42 PM
Waning Crescent, 3% visible
METAR MROC 070100Z 10008KT 9999 FEW035 21/14 A3003 NOSIG
Pressure 30.03 in
Visibility 6.2 miles
Clouds Few 3500 ft
Dew Point 57 °F
Humidity 73%
Rainfall 0.00 in
Snow Depth Not available.
5:58 AM 5:42 PM
Waning Crescent, 3% visible
METAR MROC 070100Z 10008KT 9999 FEW035 21/14 A3003 NOSIG

10-Day Weather Forecast

No radar image for this location.
×

Almanac

Astronomy

Feb. 06, 2016 Rise Set
Actual Time
Civil Twilight
Nautical Twilight
Astronomical Twilight
Moon
Length of Visible Light
Length of Day
Tomorrow will be .
, % of the Moon is Illuminated

Today's Extremes

Country Highs Country Lows

Community

WunderPhotos

Upload Photos

1,891,120 photos uploaded!

WunderBlog® & News

Nearby

Air Quality

  Air Quality AQ Index Pollutant
Not available.

Snow Depth

Station Depth Elevation

Earthquake Activity

City Distance Mag. Time & Date
Minimum magnitude displayed is 2.5.

Coastal Water Temperatures

Place Temperature

Stations

Nearby Weather Stations

Station Location Temp. Windchill Dew Point Humidity Wind Precip. Elev Updated Type